sensor_id;sensor_type;location;lat;lon;timestamp;P1;durP1;ratioP1;P2;durP2;ratioP2
9392;SDS011;4736;52.508;13.422;2023-04-01T00:00:28;4.83;;;4.47;;
9392;SDS011;4736;52.508;13.422;2023-04-01T00:03:35;4.97;;;4.43;;
9392;SDS011;4736;52.508;13.422;2023-04-01T00:06:39;4.07;;;3.87;;
9392;SDS011;4736;52.508;13.422;2023-04-01T00:09:45;4.47;;;4.27;;
9392;SDS011;4736;52.508;13.422;2023-04-01T00:12:49;4.10;;;4.00;;
9392;SDS011;4736;52.508;13.422;2023-04-01T00:15:53;3.87;;;3.57;;
9392;SDS011;4736;52.508;13.422;2023-04-01T00:19:00;3.50;;;3.40;;
9392;SDS011;4736;52.508;13.422;2023-04-01T00:22:05;3.90;;;3.63;;
9392;SDS011;4736;52.508;13.422;2023-04-01T00:25:12;3.90;;;3.80;;
9392;SDS011;4736;52.508;13.422;2023-04-01T00:28:19;3.70;;;3.50;;
9392;SDS011;4736;52.508;13.422;2023-04-01T00:31:26;4.20;;;4.10;;
9392;SDS011;4736;52.508;13.422;2023-04-01T00:34:30;4.23;;;4.13;;
9392;SDS011;4736;52.508;13.422;2023-04-01T00:37:34;3.90;;;3.70;;
9392;SDS011;4736;52.508;13.422;2023-04-01T00:40:42;4.13;;;3.93;;
9392;SDS011;4736;52.508;13.422;2023-04-01T00:43:49;4.60;;;4.40;;
9392;SDS011;4736;52.508;13.422;2023-04-01T00:46:55;4.60;;;4.37;;
9392;SDS011;4736;52.508;13.422;2023-04-01T00:49:59;4.30;;;4.10;;
9392;SDS011;4736;52.508;13.422;2023-04-01T00:53:03;4.87;;;4.57;;
9392;SDS011;4736;52.508;13.422;2023-04-01T00:56:11;4.63;;;4.40;;
9392;SDS011;4736;52.508;13.422;2023-04-01T00:59:18;4.70;;;4.40;;
9392;SDS011;4736;52.508;13.422;2023-04-01T01:02:30;4.70;;;4.50;;
9392;SDS011;4736;52.508;13.422;2023-04-01T01:05:38;4.60;;;4.47;;
9392;SDS011;4736;52.508;13.422;2023-04-01T01:09:10;4.03;;;3.80;;
9392;SDS011;4736;52.508;13.422;2023-04-01T01:12:30;4.57;;;4.27;;
9392;SDS011;4736;52.508;13.422;2023-04-01T01:15:39;4.70;;;4.33;;
9392;SDS011;4736;52.508;13.422;2023-04-01T01:18:49;4.30;;;4.07;;
9392;SDS011;4736;52.508;13.422;2023-04-01T01:22:03;4.80;;;4.40;;
9392;SDS011;4736;52.508;13.422;2023-04-01T01:25:20;5.80;;;3.90;;
9392;SDS011;4736;52.508;13.422;2023-04-01T01:28:39;4.80;;;4.50;;
9392;SDS011;4736;52.508;13.422;2023-04-01T01:31:50;4.93;;;4.60;;
9392;SDS011;4736;52.508;13.422;2023-04-01T01:35:10;4.90;;;4.60;;
9392;SDS011;4736;52.508;13.422;2023-04-01T01:38:19;5.00;;;4.80;;
9392;SDS011;4736;52.508;13.422;2023-04-01T01:41:25;5.27;;;4.83;;
9392;SDS011;4736;52.508;13.422;2023-04-01T01:44:30;4.53;;;4.23;;
9392;SDS011;4736;52.508;13.422;2023-04-01T01:47:36;4.17;;;3.97;;
9392;SDS011;4736;52.508;13.422;2023-04-01T01:50:45;4.60;;;4.20;;
9392;SDS011;4736;52.508;13.422;2023-04-01T01:53:51;4.07;;;3.87;;
9392;SDS011;4736;52.508;13.422;2023-04-01T01:56:55;4.20;;;3.90;;
9392;SDS011;4736;52.508;13.422;2023-04-01T02:00:08;3.87;;;3.77;;
9392;SDS011;4736;52.508;13.422;2023-04-01T02:03:15;4.13;;;3.83;;
9392;SDS011;4736;52.508;13.422;2023-04-01T02:06:25;4.50;;;4.20;;
9392;SDS011;4736;52.508;13.422;2023-04-01T02:09:33;4.40;;;4.10;;
9392;SDS011;4736;52.508;13.422;2023-04-01T02:12:37;3.83;;;3.60;;
9392;SDS011;4736;52.508;13.422;2023-04-01T02:15:45;4.17;;;3.87;;
9392;SDS011;4736;52.508;13.422;2023-04-01T02:18:53;4.20;;;3.93;;
9392;SDS011;4736;52.508;13.422;2023-04-01T02:22:01;3.73;;;3.53;;
9392;SDS011;4736;52.508;13.422;2023-04-01T02:25:07;4.30;;;4.00;;
9392;SDS011;4736;52.508;13.422;2023-04-01T02:28:16;3.90;;;3.60;;
9392;SDS011;4736;52.508;13.422;2023-04-01T02:31:25;3.90;;;3.60;;
9392;SDS011;4736;52.508;13.422;2023-04-01T02:34:28;3.13;;;3.10;;
9392;SDS011;4736;52.508;13.422;2023-04-01T02:37:34;3.63;;;3.53;;
9392;SDS011;4736;52.508;13.422;2023-04-01T02:40:45;4.27;;;4.07;;
9392;SDS011;4736;52.508;13.422;2023-04-01T02:43:50;4.23;;;3.93;;
9392;SDS011;4736;52.508;13.422;2023-04-01T02:46:54;4.50;;;4.00;;
9392;SDS011;4736;52.508;13.422;2023-04-01T02:49:58;6.87;;;3.80;;
9392;SDS011;4736;52.508;13.422;2023-04-01T02:53:03;3.90;;;3.80;;
9392;SDS011;4736;52.508;13.422;2023-04-01T02:56:07;4.37;;;4.00;;
9392;SDS011;4736;52.508;13.422;2023-04-01T02:59:11;3.47;;;3.27;;
9392;SDS011;4736;52.508;13.422;2023-04-01T03:02:16;5.10;;;4.10;;
9392;SDS011;4736;52.508;13.422;2023-04-01T03:05:20;3.97;;;3.77;;
9392;SDS011;4736;52.508;13.422;2023-04-01T03:08:28;4.00;;;3.80;;
9392;SDS011;4736;52.508;13.422;2023-04-01T03:11:31;4.30;;;4.00;;
9392;SDS011;4736;52.508;13.422;2023-04-01T03:14:34;4.20;;;4.03;;
9392;SDS011;4736;52.508;13.422;2023-04-01T03:17:39;3.90;;;3.77;;
9392;SDS011;4736;52.508;13.422;2023-04-01T03:20:44;4.60;;;4.20;;
9392;SDS011;4736;52.508;13.422;2023-04-01T03:23:49;3.73;;;3.63;;
9392;SDS011;4736;52.508;13.422;2023-04-01T03:26:53;4.20;;;3.90;;
9392;SDS011;4736;52.508;13.422;2023-04-01T03:29:58;4.20;;;3.80;;
9392;SDS011;4736;52.508;13.422;2023-04-01T03:33:05;4.20;;;3.90;;
9392;SDS011;4736;52.508;13.422;2023-04-01T03:36:09;4.00;;;3.87;;
9392;SDS011;4736;52.508;13.422;2023-04-01T03:39:15;3.50;;;3.30;;
9392;SDS011;4736;52.508;13.422;2023-04-01T03:42:20;3.70;;;3.60;;
9392;SDS011;4736;52.508;13.422;2023-04-01T03:45:24;3.70;;;3.60;;
9392;SDS011;4736;52.508;13.422;2023-04-01T03:48:28;4.40;;;4.10;;
9392;SDS011;4736;52.508;13.422;2023-04-01T03:51:31;4.17;;;3.97;;
9392;SDS011;4736;52.508;13.422;2023-04-01T03:54:38;4.00;;;3.80;;
9392;SDS011;4736;52.508;13.422;2023-04-01T03:57:42;4.53;;;4.10;;
9392;SDS011;4736;52.508;13.422;2023-04-01T04:00:46;4.10;;;3.93;;
9392;SDS011;4736;52.508;13.422;2023-04-01T04:03:50;4.53;;;4.20;;
9392;SDS011;4736;52.508;13.422;2023-04-01T04:06:55;4.13;;;3.93;;
9392;SDS011;4736;52.508;13.422;2023-04-01T04:10:04;5.03;;;4.10;;
9392;SDS011;4736;52.508;13.422;2023-04-01T04:13:09;4.37;;;4.07;;
9392;SDS011;4736;52.508;13.422;2023-04-01T04:16:15;4.73;;;4.20;;
9392;SDS011;4736;52.508;13.422;2023-04-01T04:19:19;5.27;;;4.77;;
9392;SDS011;4736;52.508;13.422;2023-04-01T04:22:22;4.57;;;4.17;;
9392;SDS011;4736;52.508;13.422;2023-04-01T04:25:27;5.17;;;4.80;;
9392;SDS011;4736;52.508;13.422;2023-04-01T04:28:30;5.37;;;4.87;;
9392;SDS011;4736;52.508;13.422;2023-04-01T04:31:33;4.53;;;4.17;;
9392;SDS011;4736;52.508;13.422;2023-04-01T04:34:36;5.33;;;4.57;;
9392;SDS011;4736;52.508;13.422;2023-04-01T04:37:39;5.00;;;4.70;;
9392;SDS011;4736;52.508;13.422;2023-04-01T04:40:44;6.47;;;4.70;;
9392;SDS011;4736;52.508;13.422;2023-04-01T04:43:51;5.10;;;4.70;;
9392;SDS011;4736;52.508;13.422;2023-04-01T04:47:27;4.93;;;4.60;;
9392;SDS011;4736;52.508;13.422;2023-04-01T04:50:30;5.33;;;4.87;;
9392;SDS011;4736;52.508;13.422;2023-04-01T04:53:33;6.57;;;5.03;;
9392;SDS011;4736;52.508;13.422;2023-04-01T04:56:36;4.53;;;4.23;;
9392;SDS011;4736;52.508;13.422;2023-04-01T04:59:40;5.73;;;5.33;;
9392;SDS011;4736;52.508;13.422;2023-04-01T05:02:53;6.63;;;5.00;;
9392;SDS011;4736;52.508;13.422;2023-04-01T05:05:59;4.93;;;4.63;;
9392;SDS011;4736;52.508;13.422;2023-04-01T05:09:03;5.57;;;5.03;;
9392;SDS011;4736;52.508;13.422;2023-04-01T05:12:06;4.90;;;4.67;;
9392;SDS011;4736;52.508;13.422;2023-04-01T05:15:14;5.47;;;4.90;;
9392;SDS011;4736;52.508;13.422;2023-04-01T05:18:21;5.40;;;4.90;;
9392;SDS011;4736;52.508;13.422;2023-04-01T05:21:24;5.20;;;4.70;;
9392;SDS011;4736;52.508;13.422;2023-04-01T05:24:28;5.37;;;4.97;;
9392;SDS011;4736;52.508;13.422;2023-04-01T05:27:31;5.63;;;5.20;;
9392;SDS011;4736;52.508;13.422;2023-04-01T05:30:34;5.53;;;5.07;;
9392;SDS011;4736;52.508;13.422;2023-04-01T05:33:38;5.57;;;5.00;;
9392;SDS011;4736;52.508;13.422;2023-04-01T05:36:43;4.90;;;4.70;;
9392;SDS011;4736;52.508;13.422;2023-04-01T05:39:46;7.07;;;6.33;;
9392;SDS011;4736;52.508;13.422;2023-04-01T05:42:50;5.60;;;5.10;;
9392;SDS011;4736;52.508;13.422;2023-04-01T05:45:53;5.23;;;4.93;;
9392;SDS011;4736;52.508;13.422;2023-04-01T05:48:57;6.00;;;5.50;;
9392;SDS011;4736;52.508;13.422;2023-04-01T05:52:00;5.13;;;4.77;;
9392;SDS011;4736;52.508;13.422;2023-04-01T05:55:04;5.30;;;4.93;;
9392;SDS011;4736;52.508;13.422;2023-04-01T05:58:07;5.20;;;4.70;;
9392;SDS011;4736;52.508;13.422;2023-04-01T06:01:10;5.90;;;5.40;;
9392;SDS011;4736;52.508;13.422;2023-04-01T06:04:17;6.47;;;4.90;;
9392;SDS011;4736;52.508;13.422;2023-04-01T06:07:21;5.33;;;4.87;;
9392;SDS011;4736;52.508;13.422;2023-04-01T06:10:25;5.70;;;5.33;;
9392;SDS011;4736;52.508;13.422;2023-04-01T06:13:45;5.73;;;5.40;;
9392;SDS011;4736;52.508;13.422;2023-04-01T06:17:03;7.27;;;5.30;;
9392;SDS011;4736;52.508;13.422;2023-04-01T06:20:22;6.07;;;5.77;;
9392;SDS011;4736;52.508;13.422;2023-04-01T06:23:32;5.30;;;4.90;;
9392;SDS011;4736;52.508;13.422;2023-04-01T06:26:44;4.80;;;4.47;;
9392;SDS011;4736;52.508;13.422;2023-04-01T06:29:57;5.97;;;5.13;;
9392;SDS011;4736;52.508;13.422;2023-04-01T06:33:11;7.00;;;5.60;;
9392;SDS011;4736;52.508;13.422;2023-04-01T06:36:36;7.73;;;7.13;;
9392;SDS011;4736;52.508;13.422;2023-04-01T06:39:55;6.03;;;5.53;;
9392;SDS011;4736;52.508;13.422;2023-04-01T06:43:06;7.07;;;6.60;;
9392;SDS011;4736;52.508;13.422;2023-04-01T06:46:17;6.30;;;5.90;;
9392;SDS011;4736;52.508;13.422;2023-04-01T06:49:33;6.17;;;5.57;;
9392;SDS011;4736;52.508;13.422;2023-04-01T06:52:49;7.33;;;6.50;;
9392;SDS011;4736;52.508;13.422;2023-04-01T06:56:02;6.17;;;5.80;;
9392;SDS011;4736;52.508;13.422;2023-04-01T06:59:12;7.33;;;6.63;;
9392;SDS011;4736;52.508;13.422;2023-04-01T07:02:22;7.57;;;6.43;;
9392;SDS011;4736;52.508;13.422;2023-04-01T07:05:31;6.67;;;6.17;;
9392;SDS011;4736;52.508;13.422;2023-04-01T07:08:39;5.67;;;5.27;;
9392;SDS011;4736;52.508;13.422;2023-04-01T07:11:45;7.13;;;6.53;;
9392;SDS011;4736;52.508;13.422;2023-04-01T07:14:48;6.73;;;6.10;;
9392;SDS011;4736;52.508;13.422;2023-04-01T07:17:55;7.60;;;6.50;;
9392;SDS011;4736;52.508;13.422;2023-04-01T07:21:01;7.77;;;6.83;;
9392;SDS011;4736;52.508;13.422;2023-04-01T07:24:09;6.83;;;6.33;;
9392;SDS011;4736;52.508;13.422;2023-04-01T07:27:17;6.73;;;6.13;;
9392;SDS011;4736;52.508;13.422;2023-04-01T07:30:21;7.53;;;6.70;;
9392;SDS011;4736;52.508;13.422;2023-04-01T07:33:27;7.67;;;6.27;;
9392;SDS011;4736;52.508;13.422;2023-04-01T07:36:37;6.40;;;5.90;;
9392;SDS011;4736;52.508;13.422;2023-04-01T07:39:45;5.67;;;5.27;;
9392;SDS011;4736;52.508;13.422;2023-04-01T07:43:00;8.13;;;6.33;;
9392;SDS011;4736;52.508;13.422;2023-04-01T07:46:17;6.03;;;5.53;;
9392;SDS011;4736;52.508;13.422;2023-04-01T07:49:35;5.93;;;5.23;;
9392;SDS011;4736;52.508;13.422;2023-04-01T07:52:48;5.83;;;5.40;;
9392;SDS011;4736;52.508;13.422;2023-04-01T07:56:02;6.37;;;5.90;;
9392;SDS011;4736;52.508;13.422;2023-04-01T07:59:14;5.93;;;5.50;;
9392;SDS011;4736;52.508;13.422;2023-04-01T08:02:29;5.47;;;5.07;;
9392;SDS011;4736;52.508;13.422;2023-04-01T08:05:46;5.17;;;4.93;;
9392;SDS011;4736;52.508;13.422;2023-04-01T08:08:58;5.50;;;4.23;;
9392;SDS011;4736;52.508;13.422;2023-04-01T08:12:35;4.70;;;4.40;;
9392;SDS011;4736;52.508;13.422;2023-04-01T08:15:57;4.87;;;4.47;;
9392;SDS011;4736;52.508;13.422;2023-04-01T08:19:27;5.07;;;4.47;;
9392;SDS011;4736;52.508;13.422;2023-04-01T08:22:40;5.03;;;4.43;;
9392;SDS011;4736;52.508;13.422;2023-04-01T08:25:53;4.77;;;4.53;;
9392;SDS011;4736;52.508;13.422;2023-04-01T08:29:04;4.30;;;4.00;;
9392;SDS011;4736;52.508;13.422;2023-04-01T08:32:12;4.03;;;3.90;;
9392;SDS011;4736;52.508;13.422;2023-04-01T08:35:26;4.40;;;4.20;;
9392;SDS011;4736;52.508;13.422;2023-04-01T08:38:36;5.00;;;4.80;;
9392;SDS011;4736;52.508;13.422;2023-04-01T08:41:55;5.43;;;5.23;;
9392;SDS011;4736;52.508;13.422;2023-04-01T08:45:35;5.97;;;5.67;;
9392;SDS011;4736;52.508;13.422;2023-04-01T08:49:06;6.63;;;6.33;;
9392;SDS011;4736;52.508;13.422;2023-04-01T08:52:27;7.07;;;6.63;;
9392;SDS011;4736;52.508;13.422;2023-04-01T08:55:38;6.67;;;6.30;;
9392;SDS011;4736;52.508;13.422;2023-04-01T08:58:51;7.03;;;6.63;;
9392;SDS011;4736;52.508;13.422;2023-04-01T09:09:36;7.57;;;7.10;;
9392;SDS011;4736;52.508;13.422;2023-04-01T09:12:52;8.57;;;8.07;;
9392;SDS011;4736;52.508;13.422;2023-04-01T09:19:35;7.80;;;7.40;;
9392;SDS011;4736;52.508;13.422;2023-04-01T09:22:57;7.97;;;7.57;;
9392;SDS011;4736;52.508;13.422;2023-04-01T09:26:22;8.50;;;8.00;;
9392;SDS011;4736;52.508;13.422;2023-04-01T09:29:48;9.17;;;8.60;;
9392;SDS011;4736;52.508;13.422;2023-04-01T09:33:17;8.40;;;7.80;;
9392;SDS011;4736;52.508;13.422;2023-04-01T09:36:49;9.07;;;8.57;;
9392;SDS011;4736;52.508;13.422;2023-04-01T09:40:15;8.60;;;8.10;;
9392;SDS011;4736;52.508;13.422;2023-04-01T09:43:27;8.23;;;7.73;;
9392;SDS011;4736;52.508;13.422;2023-04-01T09:46:43;9.77;;;9.20;;
9392;SDS011;4736;52.508;13.422;2023-04-01T09:49:57;10.40;;;9.70;;
9392;SDS011;4736;52.508;13.422;2023-04-01T09:53:23;11.00;;;10.30;;
9392;SDS011;4736;52.508;13.422;2023-04-01T10:00:32;10.33;;;9.53;;
9392;SDS011;4736;52.508;13.422;2023-04-01T10:04:04;10.53;;;9.93;;
9392;SDS011;4736;52.508;13.422;2023-04-01T10:07:33;9.70;;;9.20;;
9392;SDS011;4736;52.508;13.422;2023-04-01T10:14:40;10.77;;;10.03;;
9392;SDS011;4736;52.508;13.422;2023-04-01T10:18:12;10.20;;;9.60;;
9392;SDS011;4736;52.508;13.422;2023-04-01T10:21:56;11.50;;;10.60;;
9392;SDS011;4736;52.508;13.422;2023-04-01T10:25:41;10.47;;;9.77;;
9392;SDS011;4736;52.508;13.422;2023-04-01T10:32:50;9.27;;;8.70;;
9392;SDS011;4736;52.508;13.422;2023-04-01T10:47:06;8.73;;;8.23;;
9392;SDS011;4736;52.508;13.422;2023-04-01T10:50:40;8.97;;;8.53;;
9392;SDS011;4736;52.508;13.422;2023-04-01T10:54:14;9.33;;;8.70;;
9392;SDS011;4736;52.508;13.422;2023-04-01T10:57:48;9.57;;;9.07;;
9392;SDS011;4736;52.508;13.422;2023-04-01T11:05:28;8.60;;;8.20;;
9392;SDS011;4736;52.508;13.422;2023-04-01T11:13:03;6.70;;;6.40;;
9392;SDS011;4736;52.508;13.422;2023-04-01T11:16:43;6.03;;;5.77;;
9392;SDS011;4736;52.508;13.422;2023-04-01T11:20:09;5.67;;;5.53;;
9392;SDS011;4736;52.508;13.422;2023-04-01T11:23:48;5.00;;;4.90;;
9392;SDS011;4736;52.508;13.422;2023-04-01T11:27:09;5.10;;;5.00;;
9392;SDS011;4736;52.508;13.422;2023-04-01T11:30:31;5.53;;;5.33;;
9392;SDS011;4736;52.508;13.422;2023-04-01T11:33:57;5.70;;;5.50;;
9392;SDS011;4736;52.508;13.422;2023-04-01T11:37:10;4.83;;;4.67;;
9392;SDS011;4736;52.508;13.422;2023-04-01T11:40:25;4.57;;;4.47;;
9392;SDS011;4736;52.508;13.422;2023-04-01T11:43:36;5.03;;;4.73;;
9392;SDS011;4736;52.508;13.422;2023-04-01T11:46:52;4.33;;;4.23;;
9392;SDS011;4736;52.508;13.422;2023-04-01T11:50:21;4.40;;;4.30;;
9392;SDS011;4736;52.508;13.422;2023-04-01T11:53:32;5.00;;;4.80;;
9392;SDS011;4736;52.508;13.422;2023-04-01T11:56:49;4.67;;;4.57;;
9392;SDS011;4736;52.508;13.422;2023-04-01T12:00:14;4.40;;;4.30;;
9392;SDS011;4736;52.508;13.422;2023-04-01T12:03:40;4.33;;;4.23;;
9392;SDS011;4736;52.508;13.422;2023-04-01T12:06:54;4.60;;;4.50;;
9392;SDS011;4736;52.508;13.422;2023-04-01T12:10:05;5.60;;;5.40;;
9392;SDS011;4736;52.508;13.422;2023-04-01T12:13:23;6.13;;;5.83;;
9392;SDS011;4736;52.508;13.422;2023-04-01T12:16:51;6.33;;;6.03;;
9392;SDS011;4736;52.508;13.422;2023-04-01T12:20:09;5.60;;;5.50;;
9392;SDS011;4736;52.508;13.422;2023-04-01T12:26:59;6.60;;;6.30;;
9392;SDS011;4736;52.508;13.422;2023-04-01T12:33:55;6.27;;;5.97;;
9392;SDS011;4736;52.508;13.422;2023-04-01T12:37:15;6.37;;;6.13;;
9392;SDS011;4736;52.508;13.422;2023-04-01T12:47:38;8.00;;;7.57;;
9392;SDS011;4736;52.508;13.422;2023-04-01T12:51:16;8.40;;;7.90;;
9392;SDS011;4736;52.508;13.422;2023-04-01T13:02:07;7.73;;;7.27;;
9392;SDS011;4736;52.508;13.422;2023-04-01T13:05:20;8.90;;;8.30;;
9392;SDS011;4736;52.508;13.422;2023-04-01T13:08:39;9.20;;;8.70;;
9392;SDS011;4736;52.508;13.422;2023-04-01T13:11:55;9.47;;;8.90;;
9392;SDS011;4736;52.508;13.422;2023-04-01T13:15:11;9.90;;;9.40;;
9392;SDS011;4736;52.508;13.422;2023-04-01T13:18:24;11.40;;;10.70;;
9392;SDS011;4736;52.508;13.422;2023-04-01T13:21:37;11.57;;;10.87;;
9392;SDS011;4736;52.508;13.422;2023-04-01T13:24:48;11.73;;;10.83;;
9392;SDS011;4736;52.508;13.422;2023-04-01T13:28:00;10.83;;;10.13;;
9392;SDS011;4736;52.508;13.422;2023-04-01T13:31:09;11.53;;;10.73;;
9392;SDS011;4736;52.508;13.422;2023-04-01T13:34:31;11.83;;;11.13;;
9392;SDS011;4736;52.508;13.422;2023-04-01T13:37:46;11.73;;;10.77;;
9392;SDS011;4736;52.508;13.422;2023-04-01T13:40:59;10.93;;;10.20;;
9392;SDS011;4736;52.508;13.422;2023-04-01T13:44:12;9.97;;;9.37;;
9392;SDS011;4736;52.508;13.422;2023-04-01T13:51:02;10.50;;;9.70;;
9392;SDS011;4736;52.508;13.422;2023-04-01T13:58:13;11.00;;;10.33;;
9392;SDS011;4736;52.508;13.422;2023-04-01T14:01:39;11.00;;;10.20;;
9392;SDS011;4736;52.508;13.422;2023-04-01T14:04:50;10.97;;;10.27;;
9392;SDS011;4736;52.508;13.422;2023-04-01T14:08:08;10.10;;;9.50;;
9392;SDS011;4736;52.508;13.422;2023-04-01T14:11:20;10.27;;;9.77;;
9392;SDS011;4736;52.508;13.422;2023-04-01T14:14:32;10.30;;;9.70;;
9392;SDS011;4736;52.508;13.422;2023-04-01T14:17:45;11.30;;;10.40;;
9392;SDS011;4736;52.508;13.422;2023-04-01T14:20:58;9.87;;;9.27;;
9392;SDS011;4736;52.508;13.422;2023-04-01T14:24:20;9.63;;;9.03;;
9392;SDS011;4736;52.508;13.422;2023-04-01T14:27:41;10.47;;;9.87;;
9392;SDS011;4736;52.508;13.422;2023-04-01T14:31:00;9.47;;;8.97;;
9392;SDS011;4736;52.508;13.422;2023-04-01T14:34:21;9.30;;;8.70;;
9392;SDS011;4736;52.508;13.422;2023-04-01T14:37:40;9.37;;;8.87;;
9392;SDS011;4736;52.508;13.422;2023-04-01T14:41:02;10.27;;;9.57;;
9392;SDS011;4736;52.508;13.422;2023-04-01T14:44:18;9.50;;;8.90;;
9392;SDS011;4736;52.508;13.422;2023-04-01T14:47:39;9.20;;;8.63;;
9392;SDS011;4736;52.508;13.422;2023-04-01T14:50:50;8.53;;;8.13;;
9392;SDS011;4736;52.508;13.422;2023-04-01T14:53:59;8.67;;;8.17;;
9392;SDS011;4736;52.508;13.422;2023-04-01T14:57:11;8.63;;;8.23;;
9392;SDS011;4736;52.508;13.422;2023-04-01T15:00:16;8.20;;;7.80;;
9392;SDS011;4736;52.508;13.422;2023-04-01T15:03:22;8.93;;;8.37;;
9392;SDS011;4736;52.508;13.422;2023-04-01T15:06:37;9.10;;;8.60;;
9392;SDS011;4736;52.508;13.422;2023-04-01T15:09:49;9.10;;;8.60;;
9392;SDS011;4736;52.508;13.422;2023-04-01T15:12:59;9.13;;;8.63;;
9392;SDS011;4736;52.508;13.422;2023-04-01T15:16:16;9.30;;;8.73;;
9392;SDS011;4736;52.508;13.422;2023-04-01T15:19:31;9.47;;;8.97;;
9392;SDS011;4736;52.508;13.422;2023-04-01T15:22:50;9.90;;;9.30;;
9392;SDS011;4736;52.508;13.422;2023-04-01T15:29:40;8.80;;;8.40;;
9392;SDS011;4736;52.508;13.422;2023-04-01T15:32:59;8.70;;;8.20;;
9392;SDS011;4736;52.508;13.422;2023-04-01T15:36:30;8.30;;;7.90;;
9392;SDS011;4736;52.508;13.422;2023-04-01T15:39:43;8.00;;;7.63;;
9392;SDS011;4736;52.508;13.422;2023-04-01T15:43:05;8.03;;;7.63;;
9392;SDS011;4736;52.508;13.422;2023-04-01T15:46:43;7.70;;;7.30;;
9392;SDS011;4736;52.508;13.422;2023-04-01T15:49:49;7.60;;;7.30;;
9392;SDS011;4736;52.508;13.422;2023-04-01T15:53:01;7.20;;;6.80;;
9392;SDS011;4736;52.508;13.422;2023-04-01T15:59:39;7.80;;;7.50;;
9392;SDS011;4736;52.508;13.422;2023-04-01T16:03:14;8.33;;;7.90;;
9392;SDS011;4736;52.508;13.422;2023-04-01T16:06:48;8.53;;;8.03;;
9392;SDS011;4736;52.508;13.422;2023-04-01T16:10:00;9.47;;;8.97;;
9392;SDS011;4736;52.508;13.422;2023-04-01T16:13:28;8.70;;;8.30;;
9392;SDS011;4736;52.508;13.422;2023-04-01T16:16:46;9.57;;;9.00;;
9392;SDS011;4736;52.508;13.422;2023-04-01T16:20:02;8.27;;;7.87;;
9392;SDS011;4736;52.508;13.422;2023-04-01T16:23:18;9.07;;;8.37;;
9392;SDS011;4736;52.508;13.422;2023-04-01T16:26:27;8.97;;;8.37;;
9392;SDS011;4736;52.508;13.422;2023-04-01T16:29:38;8.63;;;8.13;;
9392;SDS011;4736;52.508;13.422;2023-04-01T16:32:49;8.30;;;7.90;;
9392;SDS011;4736;52.508;13.422;2023-04-01T16:35:59;7.93;;;7.53;;
9392;SDS011;4736;52.508;13.422;2023-04-01T16:39:22;8.50;;;7.90;;
9392;SDS011;4736;52.508;13.422;2023-04-01T16:42:34;7.63;;;7.33;;
9392;SDS011;4736;52.508;13.422;2023-04-01T16:45:45;8.73;;;8.10;;
9392;SDS011;4736;52.508;13.422;2023-04-01T16:49:00;8.00;;;7.60;;
9392;SDS011;4736;52.508;13.422;2023-04-01T16:52:17;8.77;;;8.37;;
9392;SDS011;4736;52.508;13.422;2023-04-01T16:55:42;7.13;;;6.87;;
9392;SDS011;4736;52.508;13.422;2023-04-01T16:58:56;7.80;;;7.40;;
9392;SDS011;4736;52.508;13.422;2023-04-01T17:02:08;7.33;;;7.00;;
9392;SDS011;4736;52.508;13.422;2023-04-01T17:05:14;8.20;;;7.80;;
9392;SDS011;4736;52.508;13.422;2023-04-01T17:08:22;7.93;;;7.47;;
9392;SDS011;4736;52.508;13.422;2023-04-01T17:11:36;7.83;;;7.43;;
9392;SDS011;4736;52.508;13.422;2023-04-01T17:14:47;8.63;;;8.07;;
9392;SDS011;4736;52.508;13.422;2023-04-01T17:17:56;8.53;;;7.90;;
9392;SDS011;4736;52.508;13.422;2023-04-01T17:21:05;8.37;;;7.97;;
9392;SDS011;4736;52.508;13.422;2023-04-01T17:24:21;8.17;;;7.67;;
9392;SDS011;4736;52.508;13.422;2023-04-01T17:27:35;8.33;;;7.90;;
9392;SDS011;4736;52.508;13.422;2023-04-01T17:30:45;8.73;;;8.23;;
9392;SDS011;4736;52.508;13.422;2023-04-01T17:34:00;8.67;;;7.97;;
9392;SDS011;4736;52.508;13.422;2023-04-01T17:37:24;9.03;;;8.43;;
9392;SDS011;4736;52.508;13.422;2023-04-01T17:40:39;9.20;;;8.40;;
9392;SDS011;4736;52.508;13.422;2023-04-01T17:43:55;8.63;;;8.07;;
9392;SDS011;4736;52.508;13.422;2023-04-01T17:47:10;9.00;;;8.53;;
9392;SDS011;4736;52.508;13.422;2023-04-01T17:50:33;8.80;;;8.27;;
9392;SDS011;4736;52.508;13.422;2023-04-01T17:53:48;8.70;;;8.27;;
9392;SDS011;4736;52.508;13.422;2023-04-01T17:57:05;9.43;;;8.83;;
9392;SDS011;4736;52.508;13.422;2023-04-01T18:00:29;8.53;;;7.97;;
9392;SDS011;4736;52.508;13.422;2023-04-01T18:07:34;8.93;;;8.40;;
9392;SDS011;4736;52.508;13.422;2023-04-01T18:10:57;8.67;;;8.07;;
9392;SDS011;4736;52.508;13.422;2023-04-01T18:14:20;8.00;;;7.57;;
9392;SDS011;4736;52.508;13.422;2023-04-01T18:17:40;8.37;;;7.87;;
9392;SDS011;4736;52.508;13.422;2023-04-01T18:20:53;8.47;;;8.07;;
9392;SDS011;4736;52.508;13.422;2023-04-01T18:24:02;8.47;;;7.87;;
9392;SDS011;4736;52.508;13.422;2023-04-01T18:27:15;8.23;;;7.70;;
9392;SDS011;4736;52.508;13.422;2023-04-01T18:30:21;8.43;;;7.73;;
9392;SDS011;4736;52.508;13.422;2023-04-01T18:33:31;8.50;;;7.93;;
9392;SDS011;4736;52.508;13.422;2023-04-01T18:36:44;8.20;;;7.50;;
9392;SDS011;4736;52.508;13.422;2023-04-01T18:39:52;8.77;;;8.27;;
9392;SDS011;4736;52.508;13.422;2023-04-01T18:43:08;8.23;;;7.73;;
9392;SDS011;4736;52.508;13.422;2023-04-01T18:46:19;7.80;;;7.30;;
9392;SDS011;4736;52.508;13.422;2023-04-01T18:49:27;8.07;;;7.37;;
9392;SDS011;4736;52.508;13.422;2023-04-01T18:52:36;8.10;;;7.50;;
9392;SDS011;4736;52.508;13.422;2023-04-01T18:55:46;7.63;;;7.13;;
9392;SDS011;4736;52.508;13.422;2023-04-01T18:58:52;8.33;;;7.80;;
9392;SDS011;4736;52.508;13.422;2023-04-01T19:02:04;8.80;;;8.07;;
9392;SDS011;4736;52.508;13.422;2023-04-01T19:05:16;9.27;;;8.67;;
9392;SDS011;4736;52.508;13.422;2023-04-01T19:08:26;9.20;;;8.50;;
9392;SDS011;4736;52.508;13.422;2023-04-01T19:11:32;9.73;;;9.03;;
9392;SDS011;4736;52.508;13.422;2023-04-01T19:14:46;9.27;;;8.60;;
9392;SDS011;4736;52.508;13.422;2023-04-01T19:18:06;10.20;;;9.47;;
9392;SDS011;4736;52.508;13.422;2023-04-01T19:21:27;9.00;;;8.37;;
9392;SDS011;4736;52.508;13.422;2023-04-01T19:24:46;10.37;;;9.40;;
9392;SDS011;4736;52.508;13.422;2023-04-01T19:28:04;9.90;;;9.17;;
9392;SDS011;4736;52.508;13.422;2023-04-01T19:31:28;10.97;;;9.90;;
9392;SDS011;4736;52.508;13.422;2023-04-01T19:34:45;9.53;;;8.63;;
9392;SDS011;4736;52.508;13.422;2023-04-01T19:37:59;11.40;;;9.73;;
9392;SDS011;4736;52.508;13.422;2023-04-01T19:41:12;10.57;;;9.57;;
9392;SDS011;4736;52.508;13.422;2023-04-01T19:44:30;12.53;;;11.27;;
9392;SDS011;4736;52.508;13.422;2023-04-01T19:47:45;11.27;;;10.27;;
9392;SDS011;4736;52.508;13.422;2023-04-01T19:51:03;11.57;;;10.47;;
9392;SDS011;4736;52.508;13.422;2023-04-01T19:54:13;11.17;;;10.27;;
9392;SDS011;4736;52.508;13.422;2023-04-01T19:57:30;10.47;;;9.47;;
9392;SDS011;4736;52.508;13.422;2023-04-01T20:00:41;10.83;;;9.77;;
9392;SDS011;4736;52.508;13.422;2023-04-01T20:03:48;11.40;;;10.30;;
9392;SDS011;4736;52.508;13.422;2023-04-01T20:06:59;11.67;;;10.63;;
9392;SDS011;4736;52.508;13.422;2023-04-01T20:10:08;12.20;;;11.03;;
9392;SDS011;4736;52.508;13.422;2023-04-01T20:13:19;11.93;;;10.83;;
9392;SDS011;4736;52.508;13.422;2023-04-01T20:16:37;15.20;;;11.53;;
9392;SDS011;4736;52.508;13.422;2023-04-01T20:19:53;12.10;;;10.90;;
9392;SDS011;4736;52.508;13.422;2023-04-01T20:23:05;11.80;;;10.57;;
9392;SDS011;4736;52.508;13.422;2023-04-01T20:26:27;13.87;;;10.63;;
9392;SDS011;4736;52.508;13.422;2023-04-01T20:29:35;12.83;;;11.03;;
9392;SDS011;4736;52.508;13.422;2023-04-01T20:32:45;11.70;;;10.70;;
9392;SDS011;4736;52.508;13.422;2023-04-01T20:36:04;10.90;;;9.90;;
9392;SDS011;4736;52.508;13.422;2023-04-01T20:42:55;10.73;;;9.73;;
9392;SDS011;4736;52.508;13.422;2023-04-01T20:46:11;11.37;;;10.07;;
9392;SDS011;4736;52.508;13.422;2023-04-01T20:49:33;10.17;;;9.40;;
9392;SDS011;4736;52.508;13.422;2023-04-01T20:52:42;9.87;;;8.87;;
9392;SDS011;4736;52.508;13.422;2023-04-01T20:56:11;9.47;;;8.67;;
9392;SDS011;4736;52.508;13.422;2023-04-01T21:03:06;10.57;;;9.57;;
9392;SDS011;4736;52.508;13.422;2023-04-01T21:06:30;9.67;;;8.80;;